This is the latest recevied weather packets stored in our database for station/object YO6RK-13. If no packets are shown the sender has not sent any weather packets the latest 10 day(s).
| Time | Temp. | Humidity | Pressure | Rain* | Wind** | Luminosity | Snow |
|---|---|---|---|---|---|---|---|
| 1777248616 | 5.56° C | 49% | 1019.5 hPa | 0 mm | - | - | - |
| 1777246833 | 6.11° C | 49% | 1019.4 hPa | 0 mm | - | - | - |
| 1777245929 | 5.56° C | 52% | 1019.1 hPa | 0 mm | - | - | - |
| 1777243514 | 6.67° C | 49% | 1019 hPa | 0 mm | - | - | - |
| 1777242636 | 6.67° C | 48% | 1018.8 hPa | 0 mm | - | - | - |
| 1777241116 | 6.67° C | 46% | 1018.7 hPa | 0 mm | - | - | - |
| 1777240231 | 6.67° C | 47% | 1018.8 hPa | 0 mm | - | - | - |
| 1777237534 | 7.78° C | 45% | 1018.1 hPa | 0 mm | - | - | - |
| 1777235724 | 7.78° C | 43% | 1018 hPa | 0 mm | - | - | - |
| 1777235114 | 8.33° C | 42% | 1017.8 hPa | 0 mm | - | - | - |
| 1777233929 | 8.33° C | 42% | 1017.1 hPa | 0 mm | - | - | - |
| 1777233338 | 8.89° C | 39% | 1017 hPa | 0 mm | - | - | - |
| 1777233028 | 9.44° C | 37% | 1016.9 hPa | 0 mm | - | - | - |
| 1777229432 | 10° C | 40% | 1015.8 hPa | 0 mm | - | - | - |
| 1777227629 | 11.11° C | 38% | 1014.7 hPa | 0 mm | - | - | - |
| 1777226133 | 11.67° C | 42% | 1014.3 hPa | 0 mm | - | - | - |
| 1777223726 | 12.78° C | 43% | 1013.6 hPa | 0 mm | - | - | - |
| 1777223134 | 13.33° C | 42% | 1013.2 hPa | 0 mm | - | - | - |
| 1777217731 | 16.67° C | 36% | 1011.6 hPa | 0 mm | - | - | - |
| 1777217122 | 16.67° C | 37% | 1011.3 hPa | 0 mm | - | - | - |
| 1777216230 | 17.22° C | 37% | 1011.2 hPa | 0 mm | - | - | - |
| 1777215929 | 17.22° C | 37% | 1011.1 hPa | 0 mm | - | - | - |
| 1777215629 | 17.22° C | 37% | 1010.9 hPa | 0 mm | - | - | - |
| 1777213514 | 17.78° C | 41% | 1010 hPa | 0 mm | - | - | - |
| 1777209624 | 21.11° C | 35% | 1008.5 hPa | 0 mm | - | - | - |
* Rain latest hour (hover to see other rain measurements)
** Current wind speed in m/s (hover to see current wind gust speed)